Time;durP1;ratioP1;P1;durP2;ratioP2;P2;SDS_P1;SDS_P2;PMS_P1;PMS_P2;Temp;Humidity;BMP_temperature;BMP_pressure;BME280_temperature;BME280_humidity;BME280_pressure;Samples;Min_cycle;Max_cycle;Signal;HPM_P1;HPM_P2
2023/07/10 00:02:12;;;;;;;7.43;4.82;;;22.80;99.90;;;;;;5025146;28;20183;-29
2023/07/10 00:04:37;;;;;;;6.95;4.40;;;22.80;99.90;;;;;;5031963;28;20190;-30
2023/07/10 00:07:03;;;;;;;5.82;4.35;;;22.80;99.90;;;;;;5033498;28;20684;-30
2023/07/10 00:09:29;;;;;;;6.78;4.57;;;22.80;99.90;;;;;;5079299;28;20299;-28
2023/07/10 00:11:55;;;;;;;5.75;4.32;;;22.80;99.90;;;;;;5046165;28;20287;-29
2023/07/10 00:14:23;;;;;;;6.88;4.88;;;22.80;99.90;;;;;;5071798;28;20185;-29
2023/07/10 00:16:50;;;;;;;6.28;4.65;;;22.70;99.90;;;;;;5054817;28;20331;-29
2023/07/10 00:19:16;;;;;;;5.47;4.68;;;22.70;99.90;;;;;;5067933;28;20205;-30
2023/07/10 00:21:42;;;;;;;5.57;4.90;;;22.60;99.90;;;;;;5025760;28;20191;-30
2023/07/10 00:24:08;;;;;;;5.75;4.80;;;22.60;99.90;;;;;;5046760;28;20176;-29
2023/07/10 00:26:37;;;;;;;6.38;4.60;;;22.60;99.90;;;;;;5063118;28;20182;-29
2023/07/10 00:29:25;;;;;;;5.72;4.63;;;22.50;99.90;;;;;;5040146;28;20237;-29
2023/07/10 00:31:51;;;;;;;6.97;4.70;;;22.40;99.90;;;;;;5055414;28;20201;-29
2023/07/10 00:34:18;;;;;;;5.85;4.80;;;22.30;99.90;;;;;;5087838;28;20260;-30
2023/07/10 00:36:50;;;;;;;6.15;5.22;;;22.40;99.90;;;;;;5044321;28;20182;-29
2023/07/10 00:39:26;;;;;;;8.65;4.82;;;22.40;99.90;;;;;;5047995;28;20201;-30
2023/07/10 00:42:02;;;;;;;6.85;4.82;;;22.30;99.90;;;;;;5066470;28;20269;-27
2023/07/10 00:44:40;;;;;;;8.45;5.05;;;22.20;99.90;;;;;;5034799;28;20182;-30
2023/07/10 00:47:14;;;;;;;6.35;5.32;;;22.20;99.90;;;;;;5040171;28;20273;-29
2023/07/10 00:49:46;;;;;;;6.00;4.90;;;22.10;99.90;;;;;;5047765;28;20236;-29
2023/07/10 00:52:21;;;;;;;11.07;4.45;;;21.90;99.90;;;;;;5036757;28;20198;-29
2023/07/10 00:54:50;;;;;;;7.13;4.68;;;21.90;99.90;;;;;;5041666;28;20172;-29
2023/07/10 00:57:33;;;;;;;5.57;4.63;;;21.90;99.90;;;;;;5042433;28;20205;-30
2023/07/10 01:00:01;;;;;;;6.68;5.20;;;21.90;99.90;;;;;;5030804;28;20186;-29
2023/07/10 01:02:27;;;;;;;7.15;5.10;;;21.90;99.90;;;;;;5046570;28;20181;-29
2023/07/10 01:05:02;;;;;;;5.60;4.40;;;22.00;99.90;;;;;;5028314;28;20197;-29
2023/07/10 01:07:35;;;;;;;8.45;5.13;;;22.00;99.90;;;;;;5042908;28;20240;-29
2023/07/10 01:10:07;;;;;;;6.47;5.00;;;22.00;99.90;;;;;;5051021;28;20205;-30
2023/07/10 01:12:33;;;;;;;5.85;4.97;;;22.00;99.90;;;;;;5053370;28;20184;-29
2023/07/10 01:14:59;;;;;;;7.13;4.57;;;22.00;99.90;;;;;;5031029;28;20249;-29
2023/07/10 01:17:25;;;;;;;5.97;4.80;;;21.90;99.90;;;;;;5048911;28;20363;-30
2023/07/10 01:20:15;;;;;;;7.07;5.30;;;22.00;99.90;;;;;;5060579;28;20268;-30
2023/07/10 01:22:40;;;;;;;6.25;4.72;;;22.00;99.90;;;;;;5046195;28;20246;-30
2023/07/10 01:25:06;;;;;;;6.07;4.97;;;21.90;99.90;;;;;;5070019;28;20272;-29
2023/07/10 01:27:32;;;;;;;5.72;4.80;;;22.00;99.90;;;;;;5022747;28;20202;-29
2023/07/10 01:30:03;;;;;;;5.80;4.95;;;22.00;99.90;;;;;;5054698;28;20221;-30
2023/07/10 01:32:29;;;;;;;5.70;5.10;;;22.00;99.90;;;;;;5054333;28;20304;-29
2023/07/10 01:35:03;;;;;;;7.05;4.95;;;21.90;99.90;;;;;;5046292;28;20183;-29
2023/07/10 01:37:29;;;;;;;7.32;5.18;;;21.90;99.90;;;;;;5055811;28;20201;-28
2023/07/10 01:39:55;;;;;;;5.55;4.57;;;21.80;99.90;;;;;;5047962;28;20197;-29
2023/07/10 01:42:22;;;;;;;7.20;5.30;;;21.80;99.90;;;;;;5080840;28;20227;-29
2023/07/10 01:44:50;;;;;;;7.38;5.30;;;21.80;99.90;;;;;;5060271;28;20182;-29
2023/07/10 01:47:18;;;;;;;7.53;4.97;;;21.70;99.90;;;;;;5069841;28;20173;-30
2023/07/10 01:49:55;;;;;;;5.88;4.75;;;21.80;99.90;;;;;;5032067;28;20206;-29
2023/07/10 01:52:23;;;;;;;4.88;4.38;;;21.80;99.90;;;;;;5054785;28;20193;-28
2023/07/10 01:54:49;;;;;;;7.50;5.07;;;21.80;99.90;;;;;;5045811;28;20264;-29
2023/07/10 01:57:16;;;;;;;7.38;4.97;;;21.80;99.90;;;;;;5032891;28;20262;-29
2023/07/10 01:59:42;;;;;;;6.15;4.65;;;21.70;99.90;;;;;;5051924;28;20201;-29
2023/07/10 02:02:08;;;;;;;7.10;4.90;;;21.80;99.90;;;;;;5046039;28;20267;-29
2023/07/10 02:04:35;;;;;;;7.47;4.93;;;21.80;99.90;;;;;;5044464;28;20181;-29
2023/07/10 02:07:01;;;;;;;10.48;5.43;;;21.80;99.90;;;;;;5035223;28;20272;-29
2023/07/10 02:09:28;;;;;;;7.43;4.80;;;21.80;99.90;;;;;;5052658;28;20231;-29
2023/07/10 02:11:55;;;;;;;7.53;5.03;;;21.80;99.90;;;;;;5044170;28;20212;-29
2023/07/10 02:14:21;;;;;;;9.88;5.18;;;21.80;99.90;;;;;;5035948;28;20183;-29
2023/07/10 02:16:47;;;;;;;5.57;4.90;;;21.80;99.90;;;;;;5047918;28;20185;-29
2023/07/10 02:19:16;;;;;;;6.75;5.15;;;21.60;99.90;;;;;;5047510;28;20193;-29
2023/07/10 02:21:41;;;;;;;5.65;4.70;;;21.60;99.90;;;;;;5044741;28;20200;-28
2023/07/10 02:24:08;;;;;;;7.93;5.00;;;21.60;99.90;;;;;;5052800;28;20178;-29
2023/07/10 02:26:34;;;;;;;6.82;5.60;;;21.60;99.90;;;;;;5035327;28;20190;-29
2023/07/10 02:29:01;;;;;;;5.82;4.85;;;21.70;99.90;;;;;;5068909;28;20217;-29
2023/07/10 02:31:27;;;;;;;7.10;5.18;;;21.70;99.90;;;;;;5042635;28;20227;-30
2023/07/10 02:33:53;;;;;;;5.78;4.93;;;21.80;99.90;;;;;;5046173;28;20190;-29
2023/07/10 02:36:21;;;;;;;7.07;4.85;;;21.80;99.90;;;;;;5021109;28;20730;-29
2023/07/10 02:38:47;;;;;;;7.50;4.90;;;21.90;99.90;;;;;;5066587;28;20208;-29
2023/07/10 02:41:13;;;;;;;5.47;4.82;;;21.90;99.90;;;;;;5049713;28;20182;-29
2023/07/10 02:43:38;;;;;;;6.07;5.03;;;21.90;99.90;;;;;;5052219;28;20208;-29
2023/07/10 02:46:04;;;;;;;7.47;4.95;;;22.00;99.90;;;;;;5037304;28;20205;-29
2023/07/10 02:48:30;;;;;;;6.00;4.78;;;21.90;99.90;;;;;;5032642;28;20205;-29
2023/07/10 02:50:56;;;;;;;5.85;5.25;;;22.00;99.90;;;;;;5033936;28;20237;-30
2023/07/10 02:53:22;;;;;;;7.80;4.78;;;21.90;99.90;;;;;;5039408;28;20184;-29
2023/07/10 02:55:48;;;;;;;6.05;5.45;;;22.00;99.90;;;;;;5065345;28;20194;-29
2023/07/10 02:58:15;;;;;;;8.13;5.20;;;21.90;99.90;;;;;;5032741;28;20202;-30
2023/07/10 03:00:40;;;;;;;8.70;5.38;;;22.00;99.90;;;;;;5041163;28;20178;-29
2023/07/10 03:03:06;;;;;;;7.22;5.05;;;21.90;99.90;;;;;;5060652;28;20193;-29
2023/07/10 03:05:32;;;;;;;7.10;5.35;;;21.80;99.90;;;;;;5046964;28;20223;-31
2023/07/10 03:07:58;;;;;;;5.95;4.90;;;21.80;99.90;;;;;;5067694;28;20243;-29
2023/07/10 03:10:24;;;;;;;5.63;4.90;;;21.80;99.90;;;;;;5059123;28;20293;-29
2023/07/10 03:12:50;;;;;;;6.32;5.03;;;21.90;99.90;;;;;;5050459;28;20186;-29
2023/07/10 03:15:16;;;;;;;5.38;4.72;;;21.90;99.90;;;;;;5038238;28;20203;-29
2023/07/10 03:17:42;;;;;;;5.38;4.80;;;21.90;99.90;;;;;;5065464;28;20208;-29
2023/07/10 03:20:09;;;;;;;5.90;4.65;;;21.90;99.90;;;;;;5044066;28;20179;-29
2023/07/10 03:22:35;;;;;;;6.22;4.75;;;22.00;99.90;;;;;;5060782;28;20181;-29
2023/07/10 03:25:01;;;;;;;6.47;4.88;;;21.90;99.90;;;;;;5065767;28;20223;-28
2023/07/10 03:27:29;;;;;;;6.97;5.05;;;21.90;99.90;;;;;;5047426;28;20245;-27
2023/07/10 03:30:00;;;;;;;5.10;4.60;;;21.90;99.90;;;;;;5051195;28;20297;-28
2023/07/10 03:32:26;;;;;;;5.70;4.75;;;22.00;99.90;;;;;;5038303;28;20179;-29
2023/07/10 03:34:52;;;;;;;6.53;5.03;;;22.00;99.90;;;;;;5060693;28;20184;-28
2023/07/10 03:37:17;;;;;;;7.25;5.28;;;22.00;99.90;;;;;;5049041;28;20177;-30
2023/07/10 03:39:43;;;;;;;7.93;5.32;;;22.00;99.90;;;;;;5047119;28;20178;-30
2023/07/10 03:42:10;;;;;;;7.28;4.95;;;22.00;99.90;;;;;;5037036;28;20208;-28
2023/07/10 03:44:36;;;;;;;8.07;5.55;;;22.00;99.90;;;;;;5037505;28;20185;-29
2023/07/10 03:47:01;;;;;;;7.20;5.47;;;22.00;99.90;;;;;;5040299;28;20204;-29
2023/07/10 03:49:27;;;;;;;6.32;5.45;;;22.00;99.90;;;;;;5065568;28;20192;-29
2023/07/10 03:51:53;;;;;;;6.53;5.13;;;22.00;99.90;;;;;;5056440;28;20218;-29
2023/07/10 03:54:19;;;;;;;6.13;5.25;;;22.00;99.90;;;;;;5069568;28;20214;-28
2023/07/10 03:56:45;;;;;;;6.53;5.30;;;22.00;99.90;;;;;;5052687;28;20252;-29
2023/07/10 03:59:10;;;;;;;6.60;5.30;;;22.00;99.90;;;;;;5052115;28;20225;-28
2023/07/10 04:01:37;;;;;;;6.05;4.82;;;22.00;99.90;;;;;;5046274;28;20186;-29
2023/07/10 04:04:03;;;;;;;6.50;4.82;;;21.90;99.90;;;;;;5053907;28;20181;-29
2023/07/10 04:06:29;;;;;;;6.82;5.10;;;21.80;99.90;;;;;;5031391;28;20214;-30
2023/07/10 04:08:58;;;;;;;6.90;5.93;;;21.80;99.90;;;;;;5053580;28;20217;-29
2023/07/10 04:11:26;;;;;;;8.88;5.55;;;21.80;99.90;;;;;;5060976;28;20258;-29
2023/07/10 04:13:52;;;;;;;8.45;5.82;;;21.80;99.90;;;;;;5028648;28;20221;-29
2023/07/10 04:16:21;;;;;;;9.70;5.60;;;21.80;99.90;;;;;;5049613;28;20268;-30
2023/07/10 04:18:49;;;;;;;7.03;5.30;;;21.80;99.90;;;;;;5059380;28;20193;-30
2023/07/10 04:21:17;;;;;;;6.35;5.53;;;21.80;99.90;;;;;;5044967;28;20194;-30
2023/07/10 04:23:43;;;;;;;5.85;5.28;;;21.80;99.90;;;;;;5013929;28;20197;-29
2023/07/10 04:26:22;;;;;;;8.57;5.47;;;21.80;99.90;;;;;;5056950;28;20179;-29
2023/07/10 04:28:50;;;;;;;6.55;5.07;;;21.60;99.90;;;;;;5031278;28;20214;-29
2023/07/10 04:31:17;;;;;;;7.55;5.05;;;21.60;99.90;;;;;;5056119;28;20209;-29
2023/07/10 04:33:44;;;;;;;9.40;5.47;;;21.60;99.90;;;;;;5040526;28;20178;-29
2023/07/10 04:36:10;;;;;;;7.40;5.13;;;21.50;99.90;;;;;;5059271;28;20167;-29
2023/07/10 04:38:36;;;;;;;8.13;5.70;;;21.60;99.90;;;;;;5026987;28;20202;-29
2023/07/10 04:41:05;;;;;;;8.05;5.40;;;21.60;99.90;;;;;;5037867;28;20189;-29
2023/07/10 04:43:33;;;;;;;6.07;5.35;;;21.50;99.90;;;;;;5041026;28;20338;-30
2023/07/10 04:46:01;;;;;;;8.35;5.75;;;21.50;99.90;;;;;;5048779;28;20198;-29
2023/07/10 04:48:27;;;;;;;8.32;5.70;;;21.50;99.90;;;;;;5035939;28;20259;-28
2023/07/10 04:50:54;;;;;;;5.90;5.30;;;21.40;99.90;;;;;;5047998;28;20676;-29
2023/07/10 04:53:22;;;;;;;8.00;5.30;;;21.30;99.90;;;;;;5046689;28;20187;-30
2023/07/10 04:55:50;;;;;;;9.95;5.45;;;21.30;99.90;;;;;;5036039;28;20261;-28
2023/07/10 04:58:16;;;;;;;8.05;5.57;;;21.20;99.90;;;;;;5034636;28;20198;-29
2023/07/10 05:00:43;;;;;;;7.53;5.35;;;21.20;99.90;;;;;;5051133;28;20205;-29
2023/07/10 05:03:09;;;;;;;7.13;5.03;;;21.30;99.90;;;;;;5051162;28;20185;-29
2023/07/10 05:05:35;;;;;;;7.45;5.50;;;21.40;99.90;;;;;;5039379;28;20182;-29
2023/07/10 05:08:02;;;;;;;7.88;5.50;;;21.40;99.90;;;;;;5050199;28;20206;-29
2023/07/10 05:10:28;;;;;;;9.90;5.63;;;21.40;99.90;;;;;;5038396;28;20211;-29
2023/07/10 05:12:54;;;;;;;7.40;5.63;;;21.20;99.90;;;;;;5047357;28;20192;-29
2023/07/10 05:15:20;;;;;;;6.85;4.70;;;21.00;99.90;;;;;;5028085;28;20178;-29
2023/07/10 05:17:47;;;;;;;7.80;5.32;;;21.00;99.90;;;;;;5048355;28;20222;-29
2023/07/10 05:20:15;;;;;;;9.50;5.75;;;21.10;99.90;;;;;;5039532;28;20193;-29
2023/07/10 05:22:41;;;;;;;9.38;6.18;;;21.20;99.90;;;;;;5038713;28;20242;-29
2023/07/10 05:25:08;;;;;;;9.15;6.22;;;21.30;99.90;;;;;;5077211;28;20224;-28
2023/07/10 05:27:34;;;;;;;8.63;5.53;;;21.40;99.90;;;;;;5056352;28;20228;-30
2023/07/10 05:30:00;;;;;;;7.43;5.55;;;21.50;99.90;;;;;;5067910;28;20602;-28
2023/07/10 05:32:26;;;;;;;8.95;5.32;;;21.60;99.90;;;;;;5037779;28;20190;-29
2023/07/10 05:34:52;;;;;;;10.55;5.57;;;21.70;99.90;;;;;;5034344;28;20206;-29
2023/07/10 05:37:18;;;;;;;7.22;6.05;;;21.80;99.90;;;;;;5055644;28;20655;-29
2023/07/10 05:39:43;;;;;;;8.75;5.85;;;22.00;99.90;;;;;;5041880;28;20179;-29
2023/07/10 05:42:09;;;;;;;7.22;5.55;;;22.00;99.90;;;;;;5045652;28;20177;-29
2023/07/10 05:44:35;;;;;;;9.30;4.95;;;21.90;99.90;;;;;;5057374;28;20232;-30
2023/07/10 05:47:03;;;;;;;7.85;5.35;;;22.00;99.90;;;;;;5060931;28;20250;-29
2023/07/10 05:49:31;;;;;;;6.88;5.32;;;22.00;99.90;;;;;;5026716;28;20197;-30
2023/07/10 05:51:57;;;;;;;8.25;6.28;;;22.10;99.90;;;;;;5038460;28;20177;-29
2023/07/10 05:54:24;;;;;;;7.28;5.35;;;22.20;99.90;;;;;;5041493;28;20284;-29
2023/07/10 05:56:50;;;;;;;7.05;5.97;;;22.20;99.90;;;;;;5042608;28;20173;-28
2023/07/10 05:59:16;;;;;;;7.32;5.40;;;22.20;99.90;;;;;;5037859;28;20194;-28
2023/07/10 06:01:42;;;;;;;7.20;5.68;;;22.20;99.90;;;;;;5043920;28;20196;-30
2023/07/10 06:04:08;;;;;;;9.25;6.18;;;22.30;99.90;;;;;;5043320;28;20177;-30
2023/07/10 06:06:34;;;;;;;7.60;5.38;;;22.50;99.90;;;;;;5038297;28;20274;-30
2023/07/10 06:09:00;;;;;;;7.65;5.60;;;22.70;99.90;;;;;;5049708;28;20359;-29
2023/07/10 06:11:26;;;;;;;6.22;5.43;;;22.80;99.90;;;;;;5052474;28;20290;-29
2023/07/10 06:13:52;;;;;;;8.07;5.32;;;23.00;99.90;;;;;;5050112;28;20223;-29
2023/07/10 06:16:18;;;;;;;7.78;5.30;;;23.10;99.90;;;;;;5022402;28;20273;-30
2023/07/10 06:18:43;;;;;;;9.77;6.03;;;23.20;99.90;;;;;;5026422;28;20206;-30
2023/07/10 06:21:10;;;;;;;7.32;6.05;;;23.20;99.90;;;;;;5033458;28;20182;-28
2023/07/10 06:23:36;;;;;;;8.27;5.47;;;23.40;99.90;;;;;;5061364;28;20185;-30
2023/07/10 06:26:03;;;;;;;7.75;5.75;;;23.50;99.90;;;;;;5033358;28;20200;-29
2023/07/10 06:28:34;;;;;;;7.63;5.90;;;23.60;99.90;;;;;;5029844;28;20210;-29
2023/07/10 06:31:06;;;;;;;24.15;19.40;;;23.60;99.90;;;;;;5038062;28;20202;-29
2023/07/10 06:33:34;;;;;;;20.10;15.32;;;23.60;99.90;;;;;;5070209;28;20200;-29
2023/07/10 06:36:01;;;;;;;12.00;7.57;;;23.60;99.90;;;;;;5037242;28;20182;-30
2023/07/10 06:38:27;;;;;;;12.07;9.07;;;23.80;99.90;;;;;;5041200;28;20201;-29
2023/07/10 06:40:54;;;;;;;13.55;8.43;;;23.90;99.90;;;;;;5042149;28;20178;-30
2023/07/10 06:43:20;;;;;;;9.55;6.93;;;24.00;99.90;;;;;;5069573;28;20288;-30
2023/07/10 06:45:47;;;;;;;10.77;6.90;;;24.10;99.90;;;;;;5033861;28;20182;-30
2023/07/10 06:48:13;;;;;;;10.50;6.68;;;24.30;99.90;;;;;;5052516;28;20250;-29
2023/07/10 06:50:39;;;;;;;8.93;6.60;;;24.50;99.90;;;;;;5046022;28;20204;-30
2023/07/10 06:53:06;;;;;;;8.35;6.53;;;24.50;99.90;;;;;;5037551;28;20215;-29
2023/07/10 06:55:32;;;;;;;10.10;6.93;;;24.50;99.90;;;;;;5031223;28;20183;-29
2023/07/10 06:57:59;;;;;;;10.95;6.85;;;24.50;99.90;;;;;;5047700;28;20201;-30
2023/07/10 07:00:26;;;;;;;9.70;7.03;;;24.50;99.90;;;;;;5042386;28;20190;-29
2023/07/10 07:02:52;;;;;;;9.65;6.88;;;24.50;99.90;;;;;;5061174;28;20188;-29
2023/07/10 07:05:18;;;;;;;10.45;7.88;;;24.50;99.90;;;;;;5040961;28;20173;-30
2023/07/10 07:07:44;;;;;;;10.40;7.50;;;24.50;99.90;;;;;;5056569;28;20211;-29
2023/07/10 07:10:15;;;;;;;9.35;7.10;;;24.60;99.90;;;;;;5052643;28;20212;-29
2023/07/10 07:12:42;;;;;;;11.73;7.70;;;24.50;99.90;;;;;;5044081;28;20193;-29
2023/07/10 07:15:11;;;;;;;10.57;7.53;;;24.50;99.90;;;;;;5054534;28;20182;-31
2023/07/10 07:17:39;;;;;;;9.65;7.32;;;24.50;99.90;;;;;;5020862;28;20253;-29
2023/07/10 07:20:07;;;;;;;10.32;7.70;;;24.60;99.90;;;;;;5032324;28;20183;-30
2023/07/10 07:22:35;;;;;;;9.18;7.35;;;24.60;99.90;;;;;;5045015;28;20277;-30
2023/07/10 07:25:04;;;;;;;8.15;6.22;;;24.70;99.90;;;;;;5052546;28;20299;-29
2023/07/10 07:27:32;;;;;;;10.63;6.07;;;24.70;99.90;;;;;;5041544;28;20264;-29
2023/07/10 07:30:04;;;;;;;10.88;6.70;;;24.70;99.90;;;;;;5039206;28;20211;-30
2023/07/10 07:32:30;;;;;;;10.43;6.28;;;24.70;99.90;;;;;;5041856;28;20188;-30
2023/07/10 07:34:56;;;;;;;7.63;6.22;;;24.90;99.90;;;;;;5038849;28;20188;-30
2023/07/10 07:37:22;;;;;;;8.93;6.10;;;25.00;99.90;;;;;;5036724;28;20390;-29
2023/07/10 07:39:48;;;;;;;7.78;6.30;;;25.20;99.90;;;;;;5034075;28;20187;-31
2023/07/10 07:42:14;;;;;;;8.40;6.40;;;25.30;99.90;;;;;;5039269;28;20183;-30
2023/07/10 07:44:41;;;;;;;11.98;6.63;;;25.30;99.90;;;;;;5034475;28;20221;-30
2023/07/10 07:47:08;;;;;;;8.02;6.15;;;25.30;99.90;;;;;;5050175;28;20182;-30
2023/07/10 07:49:34;;;;;;;8.50;6.53;;;25.40;99.90;;;;;;5031037;28;20206;-30
2023/07/10 07:51:59;;;;;;;9.70;6.47;;;25.70;99.90;;;;;;5049448;28;20234;-30
2023/07/10 07:54:25;;;;;;;9.55;5.68;;;25.80;99.90;;;;;;5060537;28;20185;-29
2023/07/10 07:56:51;;;;;;;7.45;5.85;;;26.00;99.90;;;;;;5035835;28;20236;-29
2023/07/10 07:59:18;;;;;;;8.73;5.78;;;26.20;99.90;;;;;;5048714;28;20202;-29
2023/07/10 08:01:45;;;;;;;10.70;5.55;;;26.40;99.90;;;;;;5045713;28;20186;-29
2023/07/10 08:04:11;;;;;;;8.50;5.80;;;26.50;99.90;;;;;;5047649;28;20175;-30
2023/07/10 08:06:37;;;;;;;6.85;5.88;;;26.70;99.90;;;;;;5031542;28;20264;-30
2023/07/10 08:09:03;;;;;;;9.57;5.53;;;26.70;99.90;;;;;;5050260;28;20340;-30
2023/07/10 08:11:29;;;;;;;8.20;5.40;;;26.80;99.90;;;;;;5065393;28;20212;-30
2023/07/10 08:13:55;;;;;;;6.97;5.57;;;27.10;99.90;;;;;;5043457;28;20179;-29
2023/07/10 08:16:21;;;;;;;8.02;5.53;;;27.20;99.90;;;;;;5031767;28;20190;-29
2023/07/10 08:18:48;;;;;;;7.85;5.70;;;27.50;99.90;;;;;;5041755;28;20237;-29
2023/07/10 08:21:15;;;;;;;6.93;5.78;;;27.80;99.90;;;;;;5052032;28;20178;-30
2023/07/10 08:23:41;;;;;;;8.07;5.68;;;27.80;99.90;;;;;;5063966;28;20184;-29
2023/07/10 08:26:07;;;;;;;6.57;4.85;;;27.90;99.90;;;;;;5051476;28;20186;-30
2023/07/10 08:28:33;;;;;;;6.20;4.93;;;28.10;99.90;;;;;;5052347;28;20205;-30
2023/07/10 08:30:59;;;;;;;5.50;4.95;;;28.10;99.90;;;;;;5049674;28;20205;-30
2023/07/10 08:33:26;;;;;;;6.88;5.13;;;28.10;99.90;;;;;;5063099;28;20564;-29
2023/07/10 08:36:03;;;;;;;5.68;4.68;;;28.10;99.90;;;;;;5040607;28;20252;-29
2023/07/10 08:38:30;;;;;;;9.00;4.90;;;28.20;99.90;;;;;;5045986;28;20204;-29
2023/07/10 08:41:00;;;;;;;4.85;4.35;;;28.30;99.90;;;;;;5036832;28;20178;-30
2023/07/10 08:43:32;;;;;;;6.38;4.70;;;28.40;99.90;;;;;;5063145;28;20185;-29
2023/07/10 08:46:12;;;;;;;7.35;4.90;;;28.40;99.90;;;;;;5044284;28;20205;-30
2023/07/10 08:48:42;;;;;;;6.35;5.05;;;28.40;99.90;;;;;;5039320;28;20697;-30
2023/07/10 08:51:19;;;;;;;6.53;4.97;;;28.40;99.90;;;;;;5049390;28;20240;-30
2023/07/10 08:53:52;;;;;;;5.70;4.95;;;28.30;99.90;;;;;;5067666;28;20189;-31
2023/07/10 08:56:18;;;;;;;6.00;4.60;;;28.20;99.90;;;;;;5044907;28;20178;-30
2023/07/10 08:58:43;;;;;;;6.80;4.53;;;28.20;99.90;;;;;;5039044;28;20213;-30
2023/07/10 09:01:27;;;;;;;6.57;5.13;;;28.30;99.90;;;;;;5070139;28;20276;-29
2023/07/10 09:03:55;;;;;;;5.95;4.90;;;28.20;99.90;;;;;;5053630;28;20181;-30
2023/07/10 09:06:33;;;;;;;9.73;5.25;;;28.00;99.90;;;;;;5066098;28;20181;-29
2023/07/10 09:08:59;;;;;;;6.22;4.80;;;27.90;99.90;;;;;;5041982;28;20212;-29
2023/07/10 09:11:28;;;;;;;6.78;4.72;;;27.80;99.90;;;;;;5055891;28;20243;-30
2023/07/10 09:14:00;;;;;;;5.25;4.75;;;28.00;99.90;;;;;;5045296;28;20264;-30
2023/07/10 09:16:27;;;;;;;5.47;4.55;;;28.20;99.90;;;;;;5060985;28;20232;-30
2023/07/10 09:18:56;;;;;;;4.93;4.38;;;28.50;99.90;;;;;;5029776;28;20214;-31
2023/07/10 09:21:30;;;;;;;5.43;4.75;;;28.80;99.90;;;;;;5035820;28;20178;-30
2023/07/10 09:23:56;;;;;;;8.50;4.50;;;29.10;99.90;;;;;;5033614;28;20182;-30
2023/07/10 09:26:31;;;;;;;6.10;5.18;;;29.30;99.90;;;;;;5050613;28;20221;-30
2023/07/10 09:29:15;;;;;;;6.03;5.00;;;29.40;99.90;;;;;;5046432;28;20213;-30
2023/07/10 09:31:56;;;;;;;7.90;5.25;;;29.70;99.90;;;;;;5028273;28;20237;-30
2023/07/10 09:34:27;;;;;;;6.70;5.18;;;29.80;99.90;;;;;;5040611;28;20178;-30
2023/07/10 09:36:55;;;;;;;5.38;4.45;;;29.90;99.90;;;;;;5044160;28;20198;-31
2023/07/10 09:39:28;;;;;;;6.57;5.28;;;29.60;99.90;;;;;;5053315;28;20208;-30
2023/07/10 09:41:58;;;;;;;6.38;4.90;;;29.70;99.90;;;;;;5033632;28;20232;-30
2023/07/10 09:44:44;;;;;;;5.95;5.10;;;29.70;99.90;;;;;;5032173;28;20182;-30
2023/07/10 09:47:13;;;;;;;8.43;5.22;;;29.60;99.90;;;;;;5039759;28;20178;-31
2023/07/10 09:50:00;;;;;;;6.88;5.15;;;29.40;99.90;;;;;;5033299;28;20212;-30
2023/07/10 09:52:36;;;;;;;5.18;4.70;;;29.20;99.90;;;;;;5031989;28;20186;-29
2023/07/10 09:55:14;;;;;;;5.03;4.53;;;29.10;99.90;;;;;;5049631;28;20242;-30
2023/07/10 09:58:01;;;;;;;7.72;5.35;;;29.10;99.90;;;;;;5029474;28;20225;-30
2023/07/10 10:00:28;;;;;;;6.30;4.97;;;29.10;99.90;;;;;;5051497;28;20185;-29
2023/07/10 10:02:57;;;;;;;8.32;5.10;;;29.00;99.90;;;;;;5041555;28;20185;-30
2023/07/10 10:05:23;;;;;;;8.07;5.25;;;29.00;99.90;;;;;;5039943;28;20183;-31
2023/07/10 10:08:00;;;;;;;9.18;5.60;;;29.00;99.90;;;;;;5044618;28;20234;-30
2023/07/10 10:10:29;;;;;;;6.90;5.50;;;29.00;99.90;;;;;;5052000;28;20206;-30
2023/07/10 10:12:58;;;;;;;8.30;5.60;;;29.10;99.90;;;;;;5049351;28;20211;-30
2023/07/10 10:15:28;;;;;;;8.50;5.72;;;29.20;99.90;;;;;;5038343;28;20177;-30
2023/07/10 10:18:01;;;;;;;6.82;5.15;;;29.40;99.90;;;;;;5047145;28;20310;-30
2023/07/10 10:20:30;;;;;;;6.53;5.50;;;29.60;99.90;;;;;;5039174;28;20217;-30
2023/07/10 10:22:56;;;;;;;7.53;5.85;;;29.80;99.90;;;;;;5058897;28;20193;-29
2023/07/10 10:25:33;;;;;;;6.82;5.40;;;30.00;99.90;;;;;;5034477;28;20186;-31
2023/07/10 10:28:37;;;;;;;7.65;5.90;;;30.20;99.90;;;;;;5031448;28;20206;-30
2023/07/10 10:31:08;;;;;;;7.38;6.03;;;30.30;99.90;;;;;;5032860;28;20210;-30
2023/07/10 10:33:59;;;;;;;8.30;5.35;;;30.20;99.90;;;;;;5046539;28;20178;-30
2023/07/10 10:36:25;;;;;;;8.57;5.88;;;30.00;99.90;;;;;;5042826;28;20177;-31
2023/07/10 10:38:51;;;;;;;7.35;5.80;;;30.10;99.90;;;;;;5047654;28;20434;-30
2023/07/10 10:41:47;;;;;;;8.85;5.85;;;30.30;99.90;;;;;;5061771;28;20226;-30
2023/07/10 10:44:52;;;;;;;9.40;5.80;;;30.50;99.90;;;;;;5041897;28;20206;-30
2023/07/10 10:47:24;;;;;;;7.68;5.45;;;30.80;99.90;;;;;;5027735;28;20208;-30
2023/07/10 10:50:20;;;;;;;7.03;5.57;;;31.00;99.90;;;;;;5059124;28;20177;-30
2023/07/10 10:52:59;;;;;;;7.53;5.80;;;31.00;99.90;;;;;;5034050;28;20300;-30
2023/07/10 10:55:51;;;;;;;9.30;5.65;;;31.30;99.90;;;;;;5034517;28;20209;-31
2023/07/10 10:58:30;;;;;;;7.70;5.63;;;31.40;99.90;;;;;;5057035;28;20202;-30
2023/07/10 11:01:36;;;;;;;5.85;5.07;;;31.50;99.90;;;;;;5055056;28;20190;-29
2023/07/10 11:04:14;;;;;;;6.03;5.05;;;31.50;99.90;;;;;;5054637;28;20189;-31
2023/07/10 11:06:49;;;;;;;6.00;5.00;;;31.70;99.90;;;;;;5032901;28;20189;-29
2023/07/10 11:09:22;;;;;;;5.57;4.72;;;31.80;99.90;;;;;;5033702;28;20224;-29
2023/07/10 11:11:51;;;;;;;6.07;4.60;;;31.80;99.90;;;;;;5054136;28;20205;-30
2023/07/10 11:14:18;;;;;;;8.48;5.22;;;31.90;99.90;;;;;;5023832;28;20269;-30
2023/07/10 11:16:46;;;;;;;6.03;5.43;;;32.00;99.90;;;;;;5050337;28;20197;-30
2023/07/10 11:19:17;;;;;;;6.50;4.88;;;32.10;99.90;;;;;;5049620;28;20210;-30
2023/07/10 11:21:44;;;;;;;8.70;5.35;;;32.20;99.90;;;;;;5044996;28;20186;-30
2023/07/10 11:24:31;;;;;;;5.38;4.75;;;32.40;99.90;;;;;;5040761;28;20232;-30
2023/07/10 11:27:15;;;;;;;5.05;4.65;;;32.60;99.90;;;;;;5048998;28;20209;-30
2023/07/10 11:29:52;;;;;;;6.40;4.97;;;32.50;99.90;;;;;;5048663;28;20187;-31
2023/07/10 11:32:20;;;;;;;6.50;4.95;;;32.40;99.90;;;;;;5056195;28;20189;-30
2023/07/10 11:35:14;;;;;;;7.40;4.72;;;32.70;99.90;;;;;;5045241;28;20262;-32
2023/07/10 11:37:50;;;;;;;6.80;5.00;;;32.80;99.90;;;;;;5049573;28;20700;-30
2023/07/10 11:40:28;;;;;;;4.97;4.47;;;32.50;99.90;;;;;;5045436;28;20170;-30
2023/07/10 11:43:00;;;;;;;5.38;4.72;;;32.50;99.90;;;;;;5037392;28;20265;-31
2023/07/10 11:45:33;;;;;;;5.63;4.95;;;32.40;99.90;;;;;;5038495;28;20198;-30
2023/07/10 11:47:59;;;;;;;6.55;4.80;;;32.50;99.90;;;;;;5040685;28;20684;-30
2023/07/10 11:50:29;;;;;;;5.90;4.47;;;32.70;99.90;;;;;;5033852;28;20213;-31
2023/07/10 11:53:20;;;;;;;5.45;4.70;;;32.90;99.90;;;;;;5060621;28;20181;-30
2023/07/10 11:56:06;;;;;;;5.45;4.68;;;33.30;99.90;;;;;;5039457;28;20186;-30
2023/07/10 11:58:34;;;;;;;5.57;4.97;;;33.50;99.90;;;;;;5039985;28;20217;-31
2023/07/10 12:01:19;;;;;;;7.38;4.70;;;33.40;99.90;;;;;;5039917;28;20192;-30
2023/07/10 12:03:46;;;;;;;5.30;4.80;;;33.30;99.90;;;;;;5032092;28;20193;-30
2023/07/10 12:06:19;;;;;;;5.68;4.53;;;33.30;99.90;;;;;;5053421;28;20242;-31
2023/07/10 12:08:48;;;;;;;7.05;4.47;;;33.40;99.90;;;;;;5038560;28;20296;-30
2023/07/10 12:11:46;;;;;;;6.90;4.80;;;33.70;99.90;;;;;;5038709;28;20209;-30
2023/07/10 12:14:16;;;;;;;5.22;4.38;;;33.80;99.00;;;;;;5030710;28;20183;-30
2023/07/10 12:16:45;;;;;;;8.10;4.43;;;33.80;98.90;;;;;;5055886;28;20181;-30
2023/07/10 12:19:15;;;;;;;6.50;5.00;;;33.90;98.60;;;;;;5054158;28;20194;-31
2023/07/10 12:21:41;;;;;;;5.32;4.82;;;34.10;97.80;;;;;;5054320;28;20199;-31
2023/07/10 12:24:17;;;;;;;4.95;4.55;;;33.90;97.60;;;;;;5047337;28;20208;-31
2023/07/10 12:26:49;;;;;;;7.22;5.20;;;33.80;97.80;;;;;;5063773;28;20742;-31
2023/07/10 12:29:18;;;;;;;5.78;5.07;;;34.10;97.70;;;;;;5039659;28;20198;-31
2023/07/10 12:31:45;;;;;;;5.57;4.45;;;34.10;95.70;;;;;;5054694;28;20206;-32
2023/07/10 12:34:32;;;;;;;5.18;4.25;;;34.30;95.60;;;;;;5053176;28;20198;-30
2023/07/10 12:37:00;;;;;;;5.68;4.22;;;34.10;94.10;;;;;;5035589;28;20178;-30
2023/07/10 12:39:27;;;;;;;4.70;4.30;;;33.90;93.50;;;;;;5027378;28;20198;-30
2023/07/10 12:41:55;;;;;;;4.80;4.40;;;33.90;94.10;;;;;;5029722;28;20182;-33
2023/07/10 12:44:27;;;;;;;6.35;4.50;;;33.80;93.80;;;;;;5030712;28;20189;-30
2023/07/10 12:47:14;;;;;;;5.85;4.88;;;33.80;92.60;;;;;;5033420;28;20185;-31
2023/07/10 12:49:48;;;;;;;5.75;4.72;;;33.90;94.00;;;;;;5040787;28;20202;-31
2023/07/10 12:52:14;;;;;;;4.70;4.20;;;34.00;93.10;;;;;;5053215;28;20235;-31
2023/07/10 12:54:46;;;;;;;6.88;4.18;;;34.10;91.30;;;;;;5034198;28;20188;-31
2023/07/10 12:57:18;;;;;;;5.10;4.60;;;34.30;92.30;;;;;;5059204;28;20236;-31
2023/07/10 12:59:48;;;;;;;4.60;4.20;;;34.30;91.60;;;;;;5058638;28;20185;-31